Big Bear Station Historical Data
 
Daily Summary for August 20, 2019 Units:  English    Metric   Both
Next Day »
Daily Weekly Monthly Yearly Custom

Warning: Division by zero in /home/actonast/www/www/weather/wxbb.php on line 1319
  Current: High: Low: Average:
Temperature: 48.2 °F 50.7 °F 46.8 °F 48.1 °F
Dew Point: 41.7 °F 41.7 °F 27.4 °F 35 °F
Humidity: 78% 78% 42% 61%
Wind Speed: 0mph 0mph 0mph 0mph
Wind Gust: -999mph -999mph - -
Wind Calm - - North
Pressure: 23.61 in 23.61 in 23.59 in -
Precipitation: 0 in      
Historical Graphs
 
 
Tabular Data for August 20, 2019
Time Temperature Dew Point Pressure Wind Wind Speed Wind Gust Humidity Rainfall Rate (Hourly)
00:14 50.7 °F 31.2 °F 23.61 in Calm   -999 mph 47% 0.00 in
00:29 50.5 °F 32 °F 23.60 in Calm   -999 mph 49% 0.00 in
00:45 50.5 °F 29.4 °F 23.60 in Calm   -999 mph 44% 0.00 in
01:00 49.6 °F 27.4 °F 23.60 in Calm   -999 mph 42% 0.00 in
01:15 49.3 °F 30.9 °F 23.60 in Calm   -999 mph 49% 0.00 in
01:30 49.1 °F 30.2 °F 23.60 in Calm   -999 mph 48% 0.00 in
01:45 49.1 °F 31.3 °F 23.60 in Calm   -999 mph 50% 0.00 in
02:01 48.7 °F 31.9 °F 23.60 in Calm   -999 mph 52% 0.00 in
02:16 48.2 °F 31.4 °F 23.60 in Calm   -999 mph 52% 0.00 in
02:31 48.4 °F 33.4 °F 23.60 in Calm   -999 mph 56% 0.00 in
02:46 48.2 °F 34.1 °F 23.60 in Calm   -999 mph 58% 0.00 in
03:01 47.8 °F 34.6 °F 23.60 in Calm   -999 mph 60% 0.00 in
03:17 47.8 °F 33.7 °F 23.59 in Calm   -999 mph 58% 0.00 in
03:32 47.8 °F 33.3 °F 23.59 in Calm   -999 mph 57% 0.00 in
03:47 47.5 °F 35.5 °F 23.59 in Calm   -999 mph 63% 0.00 in
04:02 47.1 °F 35.9 °F 23.60 in Calm   -999 mph 65% 0.00 in
04:18 47.3 °F 35.7 °F 23.59 in Calm   -999 mph 64% 0.00 in
04:33 47.1 °F 35.2 °F 23.60 in Calm   -999 mph 63% 0.00 in
04:48 47.1 °F 34.7 °F 23.60 in Calm   -999 mph 62% 0.00 in
05:03 47.3 °F 37.3 °F 23.60 in Calm   -999 mph 68% 0.00 in
05:18 46.9 °F 38 °F 23.60 in Calm   -999 mph 71% 0.00 in
05:34 47.3 °F 38.7 °F 23.60 in Calm   -999 mph 72% 0.00 in
05:49 47.3 °F 39.1 °F 23.60 in Calm   -999 mph 73% 0.00 in
06:04 46.8 °F 39 °F 23.60 in Calm   -999 mph 74% 0.00 in
06:19 47.3 °F 39.1 °F 23.61 in Calm   -999 mph 73% 0.00 in
06:34 47.3 °F 40.1 °F 23.61 in Calm   -999 mph 76% 0.00 in
06:50 47.5 °F 40.3 °F 23.61 in Calm   -999 mph 76% 0.00 in
07:05 48 °F 40.8 °F 23.61 in Calm   -999 mph 76% 0.00 in
07:20 48.2 °F 41.7 °F 23.61 in Calm   -999 mph 78% 0.00 in
Big Bear CA Weather